[source: ADDS]
METAR
EDVE 182220Z 19011G21KT 130V230 9999 BKN020 05/01 Q1007

TAF EDVE 181700Z 1818/1821 20008KT 9999 FEW010 BKN015 PROB40 TEMPO 1818/1820 BKN013 EDDV 182220Z 20011KT 170V230 9999 BKN019 06/03 Q1005

TAF EDDV 181700Z 1818/1918 19009KT 9999 FEW012 BKN030 PROB30 TEMPO 1818/1902 BKN013 PROB40 TEMPO 1902/1909 25015G25KT BKN010 BECMG 1904/1907 25010KT BECMG 1915/1917 22004KT ETHS 182120Z 20011KT 9999 BKN022 05/03 Q1005 WHT

TAF AMD ETHS 181530Z 1815/1824 21008KT 4000 BR BKN005 TEMPO 1815/1821 19006KT 2000 -RADZ OVC003 CANCEL 1600 ETHC 182120Z 17009KT 9999 FEW022 BKN025 05/03 Q1005 BLU

TAF AMD ETHC 181720Z 1815/1824 20007KT 5000 -DZ SCT005 BKN010 TEMPO 1815/1821 18005KT 3000 DZRA BKN005 CANCEL 1720 EDVK 181850Z 18010KT 140V210 9999 OVC008 03/02 Q1007

TAF EDVK 181700Z 1818/1903 19012KT 9999 OVC015 TEMPO 1818/1903 4500 -DZRA BKN008 PROB30 TEMPO 1821/1902 2000 -SNRA BKN004
TAF
TAF EDVE 181700Z 1818/1821 20008KT 9999 FEW010 BKN015 PROB40 TEMPO 1818/1820 BKN013

TAF EDDV 181700Z 1818/1918 19009KT 9999 FEW012 BKN030 PROB30 TEMPO 1818/1902 BKN013 PROB40 TEMPO 1902/1909 25015G25KT BKN010 BECMG 1904/1907 25010KT BECMG 1915/1917 22004KT

TAF AMD ETHS 181530Z 1815/1824 21008KT 4000 BR BKN005 TEMPO 1815/1821 19006KT 2000 -RADZ OVC003 CANCEL 1600

TAF AMD ETHC 181720Z 1815/1824 20007KT 5000 -DZ SCT005 BKN010 TEMPO 1815/1821 18005KT 3000 DZRA BKN005 CANCEL 1720

TAF EDVK 181700Z 1818/1903 19012KT 9999 OVC015 TEMPO 1818/1903 4500 -DZRA BKN008 PROB30 TEMPO 1821/1902 2000 -SNRA BKN004

SR / SS: 06:43 / 15:22 UTC (EDVE 2019-11-18)
Florian Hansmann ist ab sofort als Fluglehrer für die FFG tätig! Danke für das Engagement und viel Spaß mit deinen zukünftigen Schülern! +++ Willkommen im Verein Michael und viel Erfolg für deine Ausbildung! +++ Herzlich Willkommen bei der FFG Jens! +++ Uwe hat die PPL-Prüfung bestanden! Herzlichen Glückwunsch und Always Happy Landings!! +++ Hallo und herzlich Willkommen Lothar! Wir wünschen viel Spaß und Erfolg für die Ausbildung! +++ Und schon wieder hat sich ein Schüler freigeflogen, herzlichen Glückwunsch Sebastian zum ersten Solo! +++ Auch Mathias hat sein erstes Solo hinter sich gebracht. Herzlichen Glückwunsch und weiterhin Happy Landings! +++ Ilya hat seinen ersten Soloflug absolviert! Glückwunsch und weiter so! +++ Herzlich Willkommen bei der FFG, Carsten! +++ Hallo Peter, willkommen im Verein und viel Spaß bei der Ausbildung! +++ Falk hat sich freigeflogen!

wenig -> mittel -> viel

Professionelle Piloten arbeiten mit Checkliste
Ausdrucken und abarbeiten! Vorbereitete Links helfen bei der Beschaffung der notwendigen Informationen.

Weiterlesen ...

 Zugang zur DFS. Auf dem FFG-Account sind alle erforderlichen Daten unserer Maschinen hinterlegt. Jedes Mitglied hat hier volle Rechte! Zugangsdaten gibt es im Internen Bereich.

Hier gibt es die AIP mit allen erforderlichen Karten die im Abo der FFG liegen zum Download für unsere Mitglieder.

Letztes NOTAM EDVE
von 18.11.2019 1108Z bis 15.02.2020 2359Z
DUE TO OUTAGE OF DLE DVOR/DME THE FLW CHANGES TO SID OCCUR: GPS/FMS RNAV OVERLAY REMAIN UNCHANGED. AMEND DLE DVOR/DME TO READ DLE INT. [more]

Letztes NOTAM EDBC
von 18.11.2019 1015Z bis 15.02.2020 2359Z
ALL VFR AND IFR PROC TEMPO SUSPENDED. USABLE ONLY FOR FLIGHT VALIDATION.

Letztes NOTAM EDVM
von 25.06.2019 0700Z bis PERM
SAFETYZONE FOR PJE ESTABLISHED ON APRON 1, TWY D BTN TWY G AND B AND TWY B SOUTH TWY D. DURING PJE ACT START UP OF ENGINES NOT PERMITTED. ACTUAL [more]

Letztes NOTAM EDOV
von 15.11.2019 0700Z bis 19.11.2019 1800Z
MOGAS NOT AVBL.

Letztes NOTAM EDDV
von 18.11.2019 0922Z bis 15.02.2020 2359Z
DUE TO OUTAGE OF DLE DVOR/DME THE FLW CHANGES TO SID OCCUR: GPS (FMS) RNAV OVERLAY REMAINS UNCHANGED. RWY 09L/R: WERRA 3Y/3G AND WRB 3 [more]

Letztes NOTAM EDVK
von 30.10.2019 1810Z bis 30.11.2019 2259Z
APRON GENERAL AVIATION, WIP AT SOUTHERN PART.

          aerodata150     Radio38